sensor_id;sensor_type;location;lat;lon;timestamp;P1;durP1;ratioP1;P2;durP2;ratioP2
12925;SDS011;6529;50.566;9.774;2024-03-23T00:55:33;20.33;;;14.30;;
12925;SDS011;6529;50.566;9.774;2024-03-23T00:57:59;20.27;;;14.20;;
12925;SDS011;6529;50.566;9.774;2024-03-23T01:00:24;18.03;;;13.13;;
12925;SDS011;6529;50.566;9.774;2024-03-23T01:02:50;20.40;;;14.33;;
12925;SDS011;6529;50.566;9.774;2024-03-23T01:05:16;21.00;;;14.17;;
12925;SDS011;6529;50.566;9.774;2024-03-23T01:07:41;18.43;;;13.13;;
12925;SDS011;6529;50.566;9.774;2024-03-23T01:10:07;18.37;;;13.63;;
12925;SDS011;6529;50.566;9.774;2024-03-23T01:12:33;21.10;;;14.17;;
12925;SDS011;6529;50.566;9.774;2024-03-23T01:14:58;18.30;;;13.40;;
12925;SDS011;6529;50.566;9.774;2024-03-23T01:17:24;20.70;;;14.00;;
12925;SDS011;6529;50.566;9.774;2024-03-23T01:19:49;22.43;;;13.93;;
12925;SDS011;6529;50.566;9.774;2024-03-23T01:22:15;18.73;;;13.67;;
12925;SDS011;6529;50.566;9.774;2024-03-23T01:24:40;21.00;;;13.93;;
12925;SDS011;6529;50.566;9.774;2024-03-23T01:27:06;20.03;;;13.43;;
12925;SDS011;6529;50.566;9.774;2024-03-23T01:29:31;18.67;;;13.00;;
12925;SDS011;6529;50.566;9.774;2024-03-23T01:31:57;16.03;;;12.97;;
12925;SDS011;6529;50.566;9.774;2024-03-23T01:34:22;19.57;;;14.17;;
12925;SDS011;6529;50.566;9.774;2024-03-23T01:36:49;19.03;;;14.00;;
12925;SDS011;6529;50.566;9.774;2024-03-23T01:39:15;18.73;;;12.77;;
12925;SDS011;6529;50.566;9.774;2024-03-23T01:41:41;18.33;;;13.17;;
12925;SDS011;6529;50.566;9.774;2024-03-23T01:44:08;19.27;;;12.67;;
12925;SDS011;6529;50.566;9.774;2024-03-23T01:46:37;19.53;;;13.80;;
12925;SDS011;6529;50.566;9.774;2024-03-23T01:49:06;21.00;;;13.90;;
12925;SDS011;6529;50.566;9.774;2024-03-23T01:51:32;18.57;;;13.37;;
12925;SDS011;6529;50.566;9.774;2024-03-23T01:53:59;18.20;;;13.70;;
12925;SDS011;6529;50.566;9.774;2024-03-23T01:56:30;16.87;;;12.67;;
12925;SDS011;6529;50.566;9.774;2024-03-23T01:58:58;16.53;;;12.37;;
12925;SDS011;6529;50.566;9.774;2024-03-23T02:01:24;17.40;;;12.43;;
12925;SDS011;6529;50.566;9.774;2024-03-23T02:03:50;17.40;;;13.27;;
12925;SDS011;6529;50.566;9.774;2024-03-23T02:06:15;20.00;;;14.50;;
12925;SDS011;6529;50.566;9.774;2024-03-23T02:08:41;21.37;;;14.77;;
12925;SDS011;6529;50.566;9.774;2024-03-23T02:11:07;21.47;;;14.23;;
12925;SDS011;6529;50.566;9.774;2024-03-23T02:13:33;17.83;;;13.47;;
12925;SDS011;6529;50.566;9.774;2024-03-23T02:15:58;17.83;;;12.70;;
12925;SDS011;6529;50.566;9.774;2024-03-23T02:18:24;18.07;;;13.37;;
12925;SDS011;6529;50.566;9.774;2024-03-23T02:20:49;19.63;;;13.37;;
12925;SDS011;6529;50.566;9.774;2024-03-23T02:23:15;19.17;;;13.83;;
12925;SDS011;6529;50.566;9.774;2024-03-23T02:25:41;20.57;;;14.27;;
12925;SDS011;6529;50.566;9.774;2024-03-23T02:28:07;18.60;;;14.27;;
12925;SDS011;6529;50.566;9.774;2024-03-23T02:30:32;18.33;;;13.27;;
12925;SDS011;6529;50.566;9.774;2024-03-23T02:32:58;18.83;;;13.40;;
12925;SDS011;6529;50.566;9.774;2024-03-23T02:35:24;18.00;;;13.63;;
12925;SDS011;6529;50.566;9.774;2024-03-23T02:37:49;18.17;;;13.33;;
12925;SDS011;6529;50.566;9.774;2024-03-23T02:40:15;18.40;;;13.50;;
12925;SDS011;6529;50.566;9.774;2024-03-23T02:42:41;18.90;;;13.17;;
12925;SDS011;6529;50.566;9.774;2024-03-23T02:45:07;17.10;;;13.27;;
12925;SDS011;6529;50.566;9.774;2024-03-23T02:47:33;19.13;;;14.07;;
12925;SDS011;6529;50.566;9.774;2024-03-23T02:49:59;18.23;;;13.60;;
12925;SDS011;6529;50.566;9.774;2024-03-23T02:52:24;19.90;;;14.17;;
12925;SDS011;6529;50.566;9.774;2024-03-23T02:54:50;19.97;;;14.43;;
12925;SDS011;6529;50.566;9.774;2024-03-23T02:57:15;18.13;;;13.97;;
12925;SDS011;6529;50.566;9.774;2024-03-23T02:59:41;19.17;;;14.23;;
12925;SDS011;6529;50.566;9.774;2024-03-23T03:02:07;19.57;;;14.50;;
12925;SDS011;6529;50.566;9.774;2024-03-23T03:04:32;20.03;;;15.10;;
12925;SDS011;6529;50.566;9.774;2024-03-23T03:06:58;20.53;;;15.07;;
12925;SDS011;6529;50.566;9.774;2024-03-23T03:09:24;21.77;;;14.90;;
12925;SDS011;6529;50.566;9.774;2024-03-23T03:11:50;18.23;;;13.40;;
12925;SDS011;6529;50.566;9.774;2024-03-23T03:14:15;17.17;;;12.60;;
12925;SDS011;6529;50.566;9.774;2024-03-23T03:16:41;19.27;;;13.23;;
12925;SDS011;6529;50.566;9.774;2024-03-23T03:19:06;21.23;;;14.77;;
12925;SDS011;6529;50.566;9.774;2024-03-23T03:21:32;21.37;;;15.07;;
12925;SDS011;6529;50.566;9.774;2024-03-23T03:23:58;22.20;;;15.67;;
12925;SDS011;6529;50.566;9.774;2024-03-23T03:26:23;18.43;;;13.53;;
12925;SDS011;6529;50.566;9.774;2024-03-23T03:28:49;18.50;;;13.57;;
12925;SDS011;6529;50.566;9.774;2024-03-23T03:31:16;18.20;;;13.87;;
12925;SDS011;6529;50.566;9.774;2024-03-23T03:33:42;18.77;;;14.20;;
12925;SDS011;6529;50.566;9.774;2024-03-23T03:36:08;19.17;;;14.20;;
12925;SDS011;6529;50.566;9.774;2024-03-23T03:38:33;18.40;;;14.03;;
12925;SDS011;6529;50.566;9.774;2024-03-23T03:41:03;23.07;;;15.87;;
12925;SDS011;6529;50.566;9.774;2024-03-23T03:43:29;26.33;;;16.07;;
12925;SDS011;6529;50.566;9.774;2024-03-23T03:45:55;24.97;;;16.00;;
12925;SDS011;6529;50.566;9.774;2024-03-23T03:48:22;21.60;;;15.47;;
12925;SDS011;6529;50.566;9.774;2024-03-23T03:50:47;21.67;;;15.27;;
12925;SDS011;6529;50.566;9.774;2024-03-23T03:53:14;21.70;;;15.10;;
12925;SDS011;6529;50.566;9.774;2024-03-23T03:55:39;20.83;;;15.17;;
12925;SDS011;6529;50.566;9.774;2024-03-23T03:58:05;20.13;;;15.03;;
12925;SDS011;6529;50.566;9.774;2024-03-23T04:00:31;21.33;;;15.57;;
12925;SDS011;6529;50.566;9.774;2024-03-23T04:02:56;19.27;;;14.37;;
12925;SDS011;6529;50.566;9.774;2024-03-23T04:05:22;19.23;;;14.90;;
12925;SDS011;6529;50.566;9.774;2024-03-23T04:07:48;23.57;;;15.10;;
12925;SDS011;6529;50.566;9.774;2024-03-23T04:10:14;19.43;;;14.63;;
12925;SDS011;6529;50.566;9.774;2024-03-23T04:12:40;20.23;;;14.77;;
12925;SDS011;6529;50.566;9.774;2024-03-23T04:15:06;22.57;;;14.83;;
12925;SDS011;6529;50.566;9.774;2024-03-23T04:17:32;21.30;;;14.90;;
12925;SDS011;6529;50.566;9.774;2024-03-23T04:19:59;21.60;;;15.47;;
12925;SDS011;6529;50.566;9.774;2024-03-23T04:22:26;22.17;;;15.47;;
12925;SDS011;6529;50.566;9.774;2024-03-23T04:24:55;21.47;;;15.30;;
12925;SDS011;6529;50.566;9.774;2024-03-23T04:27:22;19.43;;;14.73;;
12925;SDS011;6529;50.566;9.774;2024-03-23T04:29:48;22.63;;;15.77;;
12925;SDS011;6529;50.566;9.774;2024-03-23T04:32:15;20.93;;;15.60;;
12925;SDS011;6529;50.566;9.774;2024-03-23T04:34:41;19.13;;;14.90;;
12925;SDS011;6529;50.566;9.774;2024-03-23T04:37:08;22.63;;;14.73;;
12925;SDS011;6529;50.566;9.774;2024-03-23T04:39:35;20.63;;;15.17;;
12925;SDS011;6529;50.566;9.774;2024-03-23T04:42:01;20.53;;;15.03;;
12925;SDS011;6529;50.566;9.774;2024-03-23T04:44:27;21.07;;;15.60;;
12925;SDS011;6529;50.566;9.774;2024-03-23T04:46:53;20.90;;;15.40;;
12925;SDS011;6529;50.566;9.774;2024-03-23T04:49:19;22.00;;;15.60;;
12925;SDS011;6529;50.566;9.774;2024-03-23T04:51:44;23.13;;;15.53;;
12925;SDS011;6529;50.566;9.774;2024-03-23T04:54:14;19.97;;;15.10;;
12925;SDS011;6529;50.566;9.774;2024-03-23T04:56:40;23.17;;;15.63;;
12925;SDS011;6529;50.566;9.774;2024-03-23T04:59:06;21.77;;;15.80;;
12925;SDS011;6529;50.566;9.774;2024-03-23T05:01:32;21.40;;;15.93;;
12925;SDS011;6529;50.566;9.774;2024-03-23T05:03:57;21.03;;;15.57;;
12925;SDS011;6529;50.566;9.774;2024-03-23T05:06:23;21.23;;;15.17;;
12925;SDS011;6529;50.566;9.774;2024-03-23T05:08:50;21.93;;;15.47;;
12925;SDS011;6529;50.566;9.774;2024-03-23T05:11:16;23.27;;;16.83;;
12925;SDS011;6529;50.566;9.774;2024-03-23T05:13:42;22.30;;;16.40;;
12925;SDS011;6529;50.566;9.774;2024-03-23T05:16:07;24.47;;;16.20;;
12925;SDS011;6529;50.566;9.774;2024-03-23T05:18:33;21.80;;;16.03;;
12925;SDS011;6529;50.566;9.774;2024-03-23T05:20:59;24.33;;;16.30;;
12925;SDS011;6529;50.566;9.774;2024-03-23T05:23:25;23.23;;;16.73;;
12925;SDS011;6529;50.566;9.774;2024-03-23T05:25:51;23.60;;;17.47;;
12925;SDS011;6529;50.566;9.774;2024-03-23T05:28:17;24.60;;;17.77;;
12925;SDS011;6529;50.566;9.774;2024-03-23T05:30:43;25.17;;;17.57;;
12925;SDS011;6529;50.566;9.774;2024-03-23T05:33:09;25.50;;;16.27;;
12925;SDS011;6529;50.566;9.774;2024-03-23T05:35:34;23.93;;;16.90;;
12925;SDS011;6529;50.566;9.774;2024-03-23T05:38:00;22.30;;;16.17;;
12925;SDS011;6529;50.566;9.774;2024-03-23T05:40:26;24.07;;;15.43;;
12925;SDS011;6529;50.566;9.774;2024-03-23T05:42:52;22.17;;;15.10;;
12925;SDS011;6529;50.566;9.774;2024-03-23T05:45:21;21.13;;;13.80;;
12925;SDS011;6529;50.566;9.774;2024-03-23T05:47:47;16.23;;;10.87;;
12925;SDS011;6529;50.566;9.774;2024-03-23T05:50:13;7.07;;;5.13;;
12925;SDS011;6529;50.566;9.774;2024-03-23T05:52:39;5.87;;;3.90;;
12925;SDS011;6529;50.566;9.774;2024-03-23T05:55:05;5.67;;;4.20;;
12925;SDS011;6529;50.566;9.774;2024-03-23T05:57:31;4.53;;;3.20;;
12925;SDS011;6529;50.566;9.774;2024-03-23T05:59:57;3.70;;;2.37;;
12925;SDS011;6529;50.566;9.774;2024-03-23T06:02:23;3.07;;;2.53;;
12925;SDS011;6529;50.566;9.774;2024-03-23T06:04:49;2.97;;;2.07;;
12925;SDS011;6529;50.566;9.774;2024-03-23T06:07:15;3.30;;;2.27;;
12925;SDS011;6529;50.566;9.774;2024-03-23T06:09:41;2.93;;;1.77;;
12925;SDS011;6529;50.566;9.774;2024-03-23T06:12:07;2.00;;;1.70;;
12925;SDS011;6529;50.566;9.774;2024-03-23T06:14:33;1.50;;;1.30;;
12925;SDS011;6529;50.566;9.774;2024-03-23T06:17:00;1.63;;;1.20;;
12925;SDS011;6529;50.566;9.774;2024-03-23T06:19:27;1.70;;;1.20;;
12925;SDS011;6529;50.566;9.774;2024-03-23T06:21:55;0.67;;;0.53;;
12925;SDS011;6529;50.566;9.774;2024-03-23T06:24:21;1.27;;;0.70;;
12925;SDS011;6529;50.566;9.774;2024-03-23T06:26:47;0.70;;;0.70;;
12925;SDS011;6529;50.566;9.774;2024-03-23T06:29:12;1.00;;;0.70;;
12925;SDS011;6529;50.566;9.774;2024-03-23T06:31:38;0.80;;;0.60;;
12925;SDS011;6529;50.566;9.774;2024-03-23T06:34:04;0.93;;;0.73;;
12925;SDS011;6529;50.566;9.774;2024-03-23T06:36:29;0.70;;;0.70;;
12925;SDS011;6529;50.566;9.774;2024-03-23T06:38:55;0.60;;;0.60;;
12925;SDS011;6529;50.566;9.774;2024-03-23T06:41:21;0.53;;;0.53;;
12925;SDS011;6529;50.566;9.774;2024-03-23T06:43:47;0.97;;;0.70;;
12925;SDS011;6529;50.566;9.774;2024-03-23T06:46:13;0.40;;;0.40;;
12925;SDS011;6529;50.566;9.774;2024-03-23T06:48:39;0.60;;;0.60;;
12925;SDS011;6529;50.566;9.774;2024-03-23T06:51:04;1.07;;;0.60;;
12925;SDS011;6529;50.566;9.774;2024-03-23T06:53:31;0.60;;;0.60;;
12925;SDS011;6529;50.566;9.774;2024-03-23T06:55:57;0.40;;;0.40;;
12925;SDS011;6529;50.566;9.774;2024-03-23T06:58:24;0.70;;;0.60;;
12925;SDS011;6529;50.566;9.774;2024-03-23T07:00:50;0.53;;;0.50;;
12925;SDS011;6529;50.566;9.774;2024-03-23T07:03:19;0.40;;;0.40;;
12925;SDS011;6529;50.566;9.774;2024-03-23T07:05:46;0.30;;;0.30;;
12925;SDS011;6529;50.566;9.774;2024-03-23T07:08:11;0.40;;;0.40;;
12925;SDS011;6529;50.566;9.774;2024-03-23T07:10:40;0.27;;;0.27;;
12925;SDS011;6529;50.566;9.774;2024-03-23T07:13:06;0.50;;;0.47;;
12925;SDS011;6529;50.566;9.774;2024-03-23T07:15:32;0.20;;;0.20;;
12925;SDS011;6529;50.566;9.774;2024-03-23T07:17:58;0.40;;;0.40;;
12925;SDS011;6529;50.566;9.774;2024-03-23T07:20:23;0.30;;;0.30;;
12925;SDS011;6529;50.566;9.774;2024-03-23T07:22:49;0.20;;;0.20;;
12925;SDS011;6529;50.566;9.774;2024-03-23T07:25:14;0.37;;;0.37;;
12925;SDS011;6529;50.566;9.774;2024-03-23T07:27:40;0.27;;;0.27;;
12925;SDS011;6529;50.566;9.774;2024-03-23T07:30:06;0.20;;;0.20;;
12925;SDS011;6529;50.566;9.774;2024-03-23T07:32:32;0.50;;;0.50;;
12925;SDS011;6529;50.566;9.774;2024-03-23T07:34:58;0.60;;;0.60;;
12925;SDS011;6529;50.566;9.774;2024-03-23T07:37:23;0.40;;;0.40;;
12925;SDS011;6529;50.566;9.774;2024-03-23T07:39:50;0.30;;;0.30;;
12925;SDS011;6529;50.566;9.774;2024-03-23T07:42:16;0.30;;;0.30;;
12925;SDS011;6529;50.566;9.774;2024-03-23T07:44:41;0.40;;;0.40;;
12925;SDS011;6529;50.566;9.774;2024-03-23T07:47:07;0.80;;;0.50;;
12925;SDS011;6529;50.566;9.774;2024-03-23T07:49:32;0.57;;;0.50;;
12925;SDS011;6529;50.566;9.774;2024-03-23T07:51:58;0.80;;;0.57;;
12925;SDS011;6529;50.566;9.774;2024-03-23T07:54:23;0.60;;;0.60;;
12925;SDS011;6529;50.566;9.774;2024-03-23T07:56:49;0.50;;;0.50;;
12925;SDS011;6529;50.566;9.774;2024-03-23T07:59:14;1.20;;;1.10;;
12925;SDS011;6529;50.566;9.774;2024-03-23T08:01:40;1.23;;;0.90;;
12925;SDS011;6529;50.566;9.774;2024-03-23T08:04:06;0.87;;;0.57;;
12925;SDS011;6529;50.566;9.774;2024-03-23T08:06:31;0.70;;;0.70;;
12925;SDS011;6529;50.566;9.774;2024-03-23T08:08:57;1.23;;;0.70;;
12925;SDS011;6529;50.566;9.774;2024-03-23T08:11:26;0.57;;;0.57;;
12925;SDS011;6529;50.566;9.774;2024-03-23T08:13:52;0.97;;;0.57;;
12925;SDS011;6529;50.566;9.774;2024-03-23T08:16:18;1.67;;;0.70;;
12925;SDS011;6529;50.566;9.774;2024-03-23T08:18:44;1.73;;;0.73;;
12925;SDS011;6529;50.566;9.774;2024-03-23T08:21:10;1.47;;;0.90;;
12925;SDS011;6529;50.566;9.774;2024-03-23T08:23:36;2.30;;;2.10;;
12925;SDS011;6529;50.566;9.774;2024-03-23T08:26:07;2.63;;;2.43;;
12925;SDS011;6529;50.566;9.774;2024-03-23T08:28:34;3.23;;;2.00;;
12925;SDS011;6529;50.566;9.774;2024-03-23T08:31:01;1.67;;;1.00;;
12925;SDS011;6529;50.566;9.774;2024-03-23T08:33:28;2.30;;;2.07;;
12925;SDS011;6529;50.566;9.774;2024-03-23T08:38:21;2.93;;;1.03;;
12925;SDS011;6529;50.566;9.774;2024-03-23T08:40:47;4.43;;;1.87;;
12925;SDS011;6529;50.566;9.774;2024-03-23T08:43:12;2.43;;;1.23;;
12925;SDS011;6529;50.566;9.774;2024-03-23T08:45:38;1.87;;;1.20;;
12925;SDS011;6529;50.566;9.774;2024-03-23T08:48:04;4.40;;;3.00;;
12925;SDS011;6529;50.566;9.774;2024-03-23T08:50:29;7.63;;;4.33;;
12925;SDS011;6529;50.566;9.774;2024-03-23T08:52:55;4.87;;;2.77;;
12925;SDS011;6529;50.566;9.774;2024-03-23T08:55:20;3.10;;;1.40;;
12925;SDS011;6529;50.566;9.774;2024-03-23T08:57:46;3.20;;;1.30;;
12925;SDS011;6529;50.566;9.774;2024-03-23T09:00:12;3.20;;;1.60;;
12925;SDS011;6529;50.566;9.774;2024-03-23T09:02:38;2.60;;;1.17;;
12925;SDS011;6529;50.566;9.774;2024-03-23T09:05:03;1.53;;;1.43;;
12925;SDS011;6529;50.566;9.774;2024-03-23T09:07:30;1.80;;;0.93;;
12925;SDS011;6529;50.566;9.774;2024-03-23T09:09:56;2.10;;;1.60;;
12925;SDS011;6529;50.566;9.774;2024-03-23T09:12:22;2.17;;;1.37;;
12925;SDS011;6529;50.566;9.774;2024-03-23T09:14:47;2.60;;;1.60;;
12925;SDS011;6529;50.566;9.774;2024-03-23T09:17:14;4.80;;;2.80;;
12925;SDS011;6529;50.566;9.774;2024-03-23T09:19:40;2.73;;;2.27;;
12925;SDS011;6529;50.566;9.774;2024-03-23T09:22:05;1.50;;;1.40;;
12925;SDS011;6529;50.566;9.774;2024-03-23T09:24:31;1.80;;;1.70;;
12925;SDS011;6529;50.566;9.774;2024-03-23T09:26:57;2.93;;;2.20;;
12925;SDS011;6529;50.566;9.774;2024-03-23T09:29:22;3.70;;;2.27;;
12925;SDS011;6529;50.566;9.774;2024-03-23T09:31:48;2.50;;;1.67;;
12925;SDS011;6529;50.566;9.774;2024-03-23T09:34:13;2.80;;;1.50;;
12925;SDS011;6529;50.566;9.774;2024-03-23T09:36:40;2.23;;;1.60;;
12925;SDS011;6529;50.566;9.774;2024-03-23T09:39:06;2.30;;;1.60;;
12925;SDS011;6529;50.566;9.774;2024-03-23T09:41:34;2.97;;;1.43;;
12925;SDS011;6529;50.566;9.774;2024-03-23T09:44:00;1.83;;;1.53;;
12925;SDS011;6529;50.566;9.774;2024-03-23T09:46:26;3.20;;;2.60;;
12925;SDS011;6529;50.566;9.774;2024-03-23T09:48:53;1.90;;;1.40;;
12925;SDS011;6529;50.566;9.774;2024-03-23T09:51:20;3.03;;;1.40;;
12925;SDS011;6529;50.566;9.774;2024-03-23T09:53:45;2.73;;;1.70;;
12925;SDS011;6529;50.566;9.774;2024-03-23T09:56:11;2.90;;;1.53;;
12925;SDS011;6529;50.566;9.774;2024-03-23T09:58:36;2.80;;;1.73;;
12925;SDS011;6529;50.566;9.774;2024-03-23T10:01:02;3.20;;;2.17;;
12925;SDS011;6529;50.566;9.774;2024-03-23T10:03:28;4.67;;;2.30;;
12925;SDS011;6529;50.566;9.774;2024-03-23T10:06:03;3.37;;;2.37;;
12925;SDS011;6529;50.566;9.774;2024-03-23T10:08:30;7.63;;;2.73;;
12925;SDS011;6529;50.566;9.774;2024-03-23T10:10:56;10.70;;;4.30;;
12925;SDS011;6529;50.566;9.774;2024-03-23T10:13:25;14.47;;;8.47;;
12925;SDS011;6529;50.566;9.774;2024-03-23T10:15:55;10.93;;;5.57;;
12925;SDS011;6529;50.566;9.774;2024-03-23T10:18:22;11.57;;;6.20;;
12925;SDS011;6529;50.566;9.774;2024-03-23T10:21:06;10.40;;;5.60;;
12925;SDS011;6529;50.566;9.774;2024-03-23T10:23:32;13.17;;;10.00;;
12925;SDS011;6529;50.566;9.774;2024-03-23T10:26:15;8.10;;;5.40;;
12925;SDS011;6529;50.566;9.774;2024-03-23T10:28:53;8.43;;;5.13;;
12925;SDS011;6529;50.566;9.774;2024-03-23T10:31:33;7.00;;;3.93;;
12925;SDS011;6529;50.566;9.774;2024-03-23T10:34:02;8.93;;;4.30;;
12925;SDS011;6529;50.566;9.774;2024-03-23T10:36:28;6.47;;;3.77;;
12925;SDS011;6529;50.566;9.774;2024-03-23T10:38:55;7.23;;;4.23;;
12925;SDS011;6529;50.566;9.774;2024-03-23T10:41:20;8.13;;;4.30;;
12925;SDS011;6529;50.566;9.774;2024-03-23T10:43:47;7.10;;;4.20;;
12925;SDS011;6529;50.566;9.774;2024-03-23T10:46:14;8.67;;;4.37;;
12925;SDS011;6529;50.566;9.774;2024-03-23T10:48:40;6.67;;;4.20;;
12925;SDS011;6529;50.566;9.774;2024-03-23T10:51:08;7.20;;;3.53;;
12925;SDS011;6529;50.566;9.774;2024-03-23T10:53:34;6.07;;;4.17;;
12925;SDS011;6529;50.566;9.774;2024-03-23T10:56:02;8.57;;;4.10;;
12925;SDS011;6529;50.566;9.774;2024-03-23T10:58:31;5.80;;;3.13;;
12925;SDS011;6529;50.566;9.774;2024-03-23T11:01:00;4.97;;;3.60;;
12925;SDS011;6529;50.566;9.774;2024-03-23T11:03:31;7.13;;;3.70;;
12925;SDS011;6529;50.566;9.774;2024-03-23T11:06:01;7.10;;;3.70;;
12925;SDS011;6529;50.566;9.774;2024-03-23T11:08:38;4.53;;;2.80;;
12925;SDS011;6529;50.566;9.774;2024-03-23T11:11:17;5.60;;;3.07;;
12925;SDS011;6529;50.566;9.774;2024-03-23T11:13:44;5.17;;;2.97;;
12925;SDS011;6529;50.566;9.774;2024-03-23T11:16:30;5.27;;;2.77;;
12925;SDS011;6529;50.566;9.774;2024-03-23T11:22:00;6.93;;;3.27;;
12925;SDS011;6529;50.566;9.774;2024-03-23T11:24:27;5.73;;;3.03;;
12925;SDS011;6529;50.566;9.774;2024-03-23T11:26:53;4.67;;;2.50;;
12925;SDS011;6529;50.566;9.774;2024-03-23T11:29:19;4.70;;;2.60;;
12925;SDS011;6529;50.566;9.774;2024-03-23T11:31:47;4.80;;;2.10;;
12925;SDS011;6529;50.566;9.774;2024-03-23T11:34:17;4.63;;;1.80;;
12925;SDS011;6529;50.566;9.774;2024-03-23T11:36:43;3.77;;;1.97;;
12925;SDS011;6529;50.566;9.774;2024-03-23T11:39:19;4.10;;;1.80;;
12925;SDS011;6529;50.566;9.774;2024-03-23T11:44:22;4.47;;;2.50;;
12925;SDS011;6529;50.566;9.774;2024-03-23T11:46:49;5.43;;;2.20;;
12925;SDS011;6529;50.566;9.774;2024-03-23T11:49:22;2.80;;;2.00;;
12925;SDS011;6529;50.566;9.774;2024-03-23T11:51:48;5.80;;;2.40;;
12925;SDS011;6529;50.566;9.774;2024-03-23T11:54:13;3.37;;;2.17;;
12925;SDS011;6529;50.566;9.774;2024-03-23T11:56:39;5.73;;;2.10;;
12925;SDS011;6529;50.566;9.774;2024-03-23T11:59:06;4.83;;;2.10;;
12925;SDS011;6529;50.566;9.774;2024-03-23T12:01:32;5.53;;;1.80;;
12925;SDS011;6529;50.566;9.774;2024-03-23T12:03:58;4.40;;;2.00;;
12925;SDS011;6529;50.566;9.774;2024-03-23T12:06:23;4.77;;;2.33;;
12925;SDS011;6529;50.566;9.774;2024-03-23T12:08:49;6.43;;;2.50;;
12925;SDS011;6529;50.566;9.774;2024-03-23T12:11:17;3.60;;;2.23;;
12925;SDS011;6529;50.566;9.774;2024-03-23T12:13:44;4.90;;;2.60;;
12925;SDS011;6529;50.566;9.774;2024-03-23T12:16:18;5.37;;;2.67;;
12925;SDS011;6529;50.566;9.774;2024-03-23T12:18:45;3.53;;;1.90;;
12925;SDS011;6529;50.566;9.774;2024-03-23T12:21:16;2.57;;;1.90;;
12925;SDS011;6529;50.566;9.774;2024-03-23T12:23:43;1.93;;;1.70;;
12925;SDS011;6529;50.566;9.774;2024-03-23T12:26:10;3.23;;;1.63;;
12925;SDS011;6529;50.566;9.774;2024-03-23T12:28:36;6.73;;;3.27;;
12925;SDS011;6529;50.566;9.774;2024-03-23T12:31:02;1.83;;;1.40;;
12925;SDS011;6529;50.566;9.774;2024-03-23T12:33:28;1.50;;;1.40;;
12925;SDS011;6529;50.566;9.774;2024-03-23T12:35:53;3.17;;;1.60;;
12925;SDS011;6529;50.566;9.774;2024-03-23T12:38:19;2.57;;;1.50;;
12925;SDS011;6529;50.566;9.774;2024-03-23T12:40:54;3.17;;;1.30;;
12925;SDS011;6529;50.566;9.774;2024-03-23T12:43:19;2.27;;;1.47;;
12925;SDS011;6529;50.566;9.774;2024-03-23T12:45:48;2.10;;;1.27;;
12925;SDS011;6529;50.566;9.774;2024-03-23T12:48:14;3.70;;;1.40;;
12925;SDS011;6529;50.566;9.774;2024-03-23T12:50:41;4.30;;;1.73;;
12925;SDS011;6529;50.566;9.774;2024-03-23T12:53:06;3.70;;;1.90;;
12925;SDS011;6529;50.566;9.774;2024-03-23T12:55:34;2.67;;;1.77;;
12925;SDS011;6529;50.566;9.774;2024-03-23T12:58:00;4.20;;;2.13;;
12925;SDS011;6529;50.566;9.774;2024-03-23T13:00:25;5.03;;;2.10;;
12925;SDS011;6529;50.566;9.774;2024-03-23T13:02:51;2.87;;;1.80;;
12925;SDS011;6529;50.566;9.774;2024-03-23T13:05:16;2.80;;;1.80;;
12925;SDS011;6529;50.566;9.774;2024-03-23T13:07:42;5.10;;;1.97;;
12925;SDS011;6529;50.566;9.774;2024-03-23T13:10:07;4.00;;;1.77;;
12925;SDS011;6529;50.566;9.774;2024-03-23T13:12:33;3.80;;;1.40;;
12925;SDS011;6529;50.566;9.774;2024-03-23T13:14:59;2.70;;;1.27;;
12925;SDS011;6529;50.566;9.774;2024-03-23T13:17:26;2.50;;;1.30;;
12925;SDS011;6529;50.566;9.774;2024-03-23T13:19:52;2.97;;;1.20;;
12925;SDS011;6529;50.566;9.774;2024-03-23T13:22:18;4.07;;;1.30;;
12925;SDS011;6529;50.566;9.774;2024-03-23T13:24:44;3.63;;;1.30;;
12925;SDS011;6529;50.566;9.774;2024-03-23T13:27:09;1.50;;;1.10;;
12925;SDS011;6529;50.566;9.774;2024-03-23T13:29:35;2.40;;;1.63;;
12925;SDS011;6529;50.566;9.774;2024-03-23T13:32:02;2.37;;;1.50;;
12925;SDS011;6529;50.566;9.774;2024-03-23T13:34:28;2.80;;;1.20;;
12925;SDS011;6529;50.566;9.774;2024-03-23T13:36:54;2.17;;;0.90;;
12925;SDS011;6529;50.566;9.774;2024-03-23T13:39:23;2.00;;;1.10;;
12925;SDS011;6529;50.566;9.774;2024-03-23T13:41:50;3.40;;;1.30;;
12925;SDS011;6529;50.566;9.774;2024-03-23T13:44:15;2.67;;;1.20;;
12925;SDS011;6529;50.566;9.774;2024-03-23T13:46:41;3.30;;;1.30;;
12925;SDS011;6529;50.566;9.774;2024-03-23T13:49:08;2.00;;;1.20;;
12925;SDS011;6529;50.566;9.774;2024-03-23T13:51:51;3.57;;;1.00;;
12925;SDS011;6529;50.566;9.774;2024-03-23T13:54:17;3.27;;;1.30;;
12925;SDS011;6529;50.566;9.774;2024-03-23T13:56:43;2.63;;;1.50;;
12925;SDS011;6529;50.566;9.774;2024-03-23T13:59:09;1.67;;;1.27;;
12925;SDS011;6529;50.566;9.774;2024-03-23T14:01:35;4.17;;;1.50;;
12925;SDS011;6529;50.566;9.774;2024-03-23T14:04:00;2.20;;;1.30;;
12925;SDS011;6529;50.566;9.774;2024-03-23T14:06:26;3.67;;;1.57;;
12925;SDS011;6529;50.566;9.774;2024-03-23T14:08:52;4.10;;;1.87;;
12925;SDS011;6529;50.566;9.774;2024-03-23T14:11:18;3.43;;;2.00;;
12925;SDS011;6529;50.566;9.774;2024-03-23T14:13:43;2.07;;;1.70;;
12925;SDS011;6529;50.566;9.774;2024-03-23T14:16:09;2.73;;;1.73;;
12925;SDS011;6529;50.566;9.774;2024-03-23T14:18:35;3.20;;;1.60;;
12925;SDS011;6529;50.566;9.774;2024-03-23T14:21:01;3.17;;;1.80;;
12925;SDS011;6529;50.566;9.774;2024-03-23T14:23:28;2.20;;;1.60;;
12925;SDS011;6529;50.566;9.774;2024-03-23T14:25:54;2.93;;;1.93;;
12925;SDS011;6529;50.566;9.774;2024-03-23T14:28:21;2.17;;;1.43;;
12925;SDS011;6529;50.566;9.774;2024-03-23T14:30:50;4.10;;;1.63;;
12925;SDS011;6529;50.566;9.774;2024-03-23T14:33:17;2.00;;;1.60;;
12925;SDS011;6529;50.566;9.774;2024-03-23T14:35:43;3.03;;;1.63;;
12925;SDS011;6529;50.566;9.774;2024-03-23T14:38:24;2.07;;;1.30;;
12925;SDS011;6529;50.566;9.774;2024-03-23T14:40:50;3.97;;;1.77;;
12925;SDS011;6529;50.566;9.774;2024-03-23T14:43:17;2.07;;;1.53;;
12925;SDS011;6529;50.566;9.774;2024-03-23T14:48:35;3.23;;;1.20;;
12925;SDS011;6529;50.566;9.774;2024-03-23T14:51:01;2.57;;;1.30;;
12925;SDS011;6529;50.566;9.774;2024-03-23T14:53:29;2.00;;;1.50;;
12925;SDS011;6529;50.566;9.774;2024-03-23T14:56:02;3.50;;;1.60;;
12925;SDS011;6529;50.566;9.774;2024-03-23T14:58:28;3.80;;;1.50;;
12925;SDS011;6529;50.566;9.774;2024-03-23T15:01:07;1.80;;;1.10;;
12925;SDS011;6529;50.566;9.774;2024-03-23T15:03:40;1.90;;;1.70;;
12925;SDS011;6529;50.566;9.774;2024-03-23T15:06:07;2.43;;;1.30;;
12925;SDS011;6529;50.566;9.774;2024-03-23T15:08:36;1.90;;;1.13;;
12925;SDS011;6529;50.566;9.774;2024-03-23T15:11:03;2.07;;;1.33;;
12925;SDS011;6529;50.566;9.774;2024-03-23T15:13:33;1.70;;;1.27;;
12925;SDS011;6529;50.566;9.774;2024-03-23T15:15:59;2.93;;;1.53;;
12925;SDS011;6529;50.566;9.774;2024-03-23T15:18:25;2.37;;;1.30;;
12925;SDS011;6529;50.566;9.774;2024-03-23T15:20:51;3.93;;;1.30;;
12925;SDS011;6529;50.566;9.774;2024-03-23T15:23:21;2.20;;;1.40;;
12925;SDS011;6529;50.566;9.774;2024-03-23T15:26:20;1.83;;;1.50;;
12925;SDS011;6529;50.566;9.774;2024-03-23T15:28:39;1.80;;;1.47;;
12925;SDS011;6529;50.566;9.774;2024-03-23T15:31:23;2.63;;;1.53;;
12925;SDS011;6529;50.566;9.774;2024-03-23T15:33:49;2.07;;;1.50;;
12925;SDS011;6529;50.566;9.774;2024-03-23T15:36:14;2.67;;;1.37;;
12925;SDS011;6529;50.566;9.774;2024-03-23T15:38:40;3.77;;;1.50;;
12925;SDS011;6529;50.566;9.774;2024-03-23T15:41:06;3.17;;;2.10;;
12925;SDS011;6529;50.566;9.774;2024-03-23T15:43:32;9.27;;;5.77;;
12925;SDS011;6529;50.566;9.774;2024-03-23T15:45:59;3.77;;;2.77;;
12925;SDS011;6529;50.566;9.774;2024-03-23T15:48:26;2.30;;;1.77;;
12925;SDS011;6529;50.566;9.774;2024-03-23T15:50:59;3.53;;;2.37;;
12925;SDS011;6529;50.566;9.774;2024-03-23T15:53:26;2.87;;;2.20;;
12925;SDS011;6529;50.566;9.774;2024-03-23T15:55:57;2.73;;;1.70;;